Time;durP1;ratioP1;P1;durP2;ratioP2;P2;SDS_P1;SDS_P2;PMS_P1;PMS_P2;Temp;Humidity;BMP_temperature;BMP_pressure;BME280_temperature;BME280_humidity;BME280_pressure;Samples;Min_cycle;Max_cycle;Signal;HPM_P1;HPM_P2
2023/11/24 00:03:12;;;;;;;4.70;0.98;;;;;;;5.67;93.91;99790.31;10322338;28;20065;-81
2023/11/24 00:08:15;;;;;;;11.60;1.65;;;;;;;5.73;94.62;99781.03;10334696;28;20173;-80
2023/11/24 00:13:18;;;;;;;14.38;1.60;;;;;;;5.59;95.97;99781.16;10316168;28;20077;-81
2023/11/24 00:18:22;;;;;;;13.07;2.00;;;;;;;5.19;97.20;99787.44;10330072;28;20062;-79
2023/11/24 00:23:25;;;;;;;13.38;1.73;;;;;;;5.41;95.45;99786.81;10320340;28;20058;-79
2023/11/24 00:28:28;;;;;;;15.43;2.33;;;;;;;5.63;95.33;99772.84;10319289;28;20085;-80
2023/11/24 00:33:32;;;;;;;8.65;1.30;;;;;;;5.44;93.68;99770.63;10322507;28;20061;-82
2023/11/24 00:38:36;;;;;;;9.48;2.33;;;;;;;5.17;94.30;99775.19;10326774;28;20046;-81
2023/11/24 00:43:39;;;;;;;11.90;2.17;;;;;;;5.37;92.08;99787.13;10299539;28;20046;-80
2023/11/24 00:48:43;;;;;;;11.65;1.70;;;;;;;5.32;91.70;99783.91;10312071;28;20071;-81
2023/11/24 00:53:46;;;;;;;10.18;2.00;;;;;;;5.25;92.10;99784.34;10305674;28;20074;-80
2023/11/24 00:58:50;;;;;;;16.10;2.15;;;;;;;5.47;93.66;99802.38;10302962;28;20050;-81
2023/11/24 01:03:55;;;;;;;11.23;1.60;;;;;;;5.38;92.68;99811.00;10303756;28;20045;-81
2023/11/24 01:09:00;;;;;;;10.75;2.03;;;;;;;5.59;91.61;99794.47;10307524;28;20128;-82
2023/11/24 01:14:04;;;;;;;8.98;2.13;;;;;;;5.42;90.60;99812.47;10304013;28;21588;-82
2023/11/24 01:19:09;;;;;;;15.88;1.70;;;;;;;5.49;89.96;99802.28;10320929;28;20053;-82
2023/11/24 01:24:12;;;;;;;13.27;2.10;;;;;;;5.62;87.96;99821.78;10321788;28;20073;-81
2023/11/24 01:29:15;;;;;;;10.30;1.88;;;;;;;5.15;89.57;99846.31;10335594;28;20053;-83
2023/11/24 01:34:19;;;;;;;21.35;2.38;;;;;;;5.46;91.55;99840.63;10305533;28;20061;-83
2023/11/24 01:39:22;;;;;;;14.80;1.90;;;;;;;5.40;90.60;99826.88;10301439;28;20058;-81
2023/11/24 01:44:25;;;;;;;13.02;2.17;;;;;;;5.35;91.07;99824.53;10314594;28;20082;-81
2023/11/24 01:49:29;;;;;;;14.50;2.10;;;;;;;5.50;89.31;99825.28;10301975;28;20050;-83
2023/11/24 01:54:36;;;;;;;12.05;1.55;;;;;;;5.10;89.27;99825.34;10303939;28;20046;-83
2023/11/24 01:59:40;;;;;;;13.88;2.13;;;;;;;4.89;89.37;99819.59;10319507;28;20074;-82
2023/11/24 02:04:45;;;;;;;8.75;2.10;;;;;;;4.60;86.80;99821.50;10311720;28;20042;-83
2023/11/24 02:09:48;;;;;;;9.65;1.77;;;;;;;5.03;85.05;99821.38;10325180;28;20069;-82
2023/11/24 02:14:51;;;;;;;13.35;1.73;;;;;;;4.75;85.39;99801.88;10327377;28;20163;-82
2023/11/24 02:19:57;;;;;;;8.93;1.08;;;;;;;4.28;84.41;99804.97;10331328;28;20045;-81
2023/11/24 02:25:01;;;;;;;11.40;2.13;;;;;;;4.53;84.27;99799.78;10328170;28;20050;-82
2023/11/24 02:30:05;;;;;;;12.95;1.30;;;;;;;4.44;85.11;99813.66;10310546;28;20043;-83
2023/11/24 02:35:09;;;;;;;11.13;2.08;;;;;;;4.56;85.18;99793.41;10306936;28;20048;-82
2023/11/24 02:40:14;;;;;;;11.52;1.67;;;;;;;4.44;84.31;99788.88;10316739;28;20050;-82
2023/11/24 02:45:17;;;;;;;15.38;1.60;;;;;;;4.81;82.17;99777.53;10319562;28;20057;-82
2023/11/24 02:50:20;;;;;;;9.60;1.27;;;;;;;4.35;84.17;99785.00;10331106;28;20050;-83
2023/11/24 02:55:24;;;;;;;11.05;1.40;;;;;;;4.46;85.18;99795.81;10336909;28;21200;-83
2023/11/24 03:00:27;;;;;;;11.90;1.85;;;;;;;4.42;85.27;99780.16;10329154;28;20054;-82
2023/11/24 03:05:30;;;;;;;13.88;2.03;;;;;;;4.46;85.18;99769.22;10312613;28;20057;-83
2023/11/24 03:10:34;;;;;;;8.50;2.55;;;;;;;4.29;85.35;99765.00;10329517;28;20054;-82
2023/11/24 03:15:37;;;;;;;12.60;1.55;;;;;;;4.31;85.93;99767.56;10369054;28;20041;-82
2023/11/24 03:20:40;;;;;;;9.70;1.55;;;;;;;4.20;86.24;99778.00;10366469;28;20144;-81
2023/11/24 03:25:45;;;;;;;9.00;1.52;;;;;;;4.39;84.97;99765.25;10317425;28;20147;-83
2023/11/24 03:30:48;;;;;;;15.40;1.42;;;;;;;4.13;85.75;99765.13;10323219;28;20065;-82
2023/11/24 03:35:51;;;;;;;13.73;1.77;;;;;;;4.29;85.05;99757.03;10326817;28;20034;-81
2023/11/24 03:40:56;;;;;;;11.27;1.25;;;;;;;4.25;85.14;99755.53;10331332;28;20430;-83
2023/11/24 03:46:00;;;;;;;12.02;2.00;;;;;;;4.44;84.72;99739.19;10321356;28;20541;-82
2023/11/24 03:51:04;;;;;;;8.98;2.08;;;;;;;4.31;85.68;99733.00;10320769;28;20053;-80
2023/11/24 03:56:09;;;;;;;13.18;1.67;;;;;;;4.36;86.77;99728.22;10319147;28;20053;-84
2023/11/24 04:01:15;;;;;;;9.70;1.60;;;;;;;4.26;86.65;99725.31;10311114;28;20054;-84
2023/11/24 04:06:19;;;;;;;8.10;1.55;;;;;;;4.25;87.68;99733.38;10314961;28;20050;-82
2023/11/24 04:11:23;;;;;;;5.25;1.23;;;;;;;4.43;86.64;99713.56;10335038;28;20057;-81
2023/11/24 04:16:26;;;;;;;6.20;1.17;;;;;;;4.10;89.37;99728.09;10333441;28;20034;-82
2023/11/24 04:21:29;;;;;;;14.82;1.45;;;;;;;4.31;88.96;99711.72;10316744;28;21285;-82
2023/11/24 04:26:34;;;;;;;11.10;1.83;;;;;;;4.12;88.80;99712.91;10315561;28;20050;-82
2023/11/24 04:31:37;;;;;;;5.53;1.08;;;;;;;3.93;89.20;99696.47;10322795;28;20046;-81
2023/11/24 04:36:39;;;;;;;12.90;1.77;;;;;;;4.32;86.78;99694.81;10319757;28;20085;-83
2023/11/24 04:41:44;;;;;;;11.07;1.30;;;;;;;4.41;86.87;99694.19;10319824;28;20193;-81
2023/11/24 04:46:50;;;;;;;8.02;1.70;;;;;;;4.04;87.70;99688.66;10319952;28;20089;-82
2023/11/24 04:51:53;;;;;;;11.65;1.58;;;;;;;4.09;86.90;99685.69;10334557;28;20105;-81
2023/11/24 04:56:57;;;;;;;12.13;2.10;;;;;;;4.04;87.71;99675.34;10316693;28;20485;-81
2023/11/24 05:02:02;;;;;;;12.80;2.42;;;;;;;4.65;84.64;99670.41;10321987;28;20054;-81
2023/11/24 05:07:05;;;;;;;14.27;1.77;;;;;;;4.65;84.52;99666.91;10315178;28;20046;-82
2023/11/24 05:12:10;;;;;;;11.68;1.73;;;;;;;4.41;86.44;99670.25;10316087;28;20057;-83
2023/11/24 05:17:13;;;;;;;12.48;1.85;;;;;;;4.39;87.62;99661.56;10328478;28;20069;-81
2023/11/24 05:22:16;;;;;;;17.77;2.45;;;;;;;4.37;87.31;99674.94;10302128;28;20054;-83
2023/11/24 05:27:20;;;;;;;13.50;3.05;;;;;;;4.62;85.71;99654.69;10302149;28;20050;-84
2023/11/24 05:32:23;;;;;;;8.15;1.52;;;;;;;4.18;87.14;99659.34;10313011;28;20057;-80
2023/11/24 05:37:27;;;;;;;9.45;1.67;;;;;;;4.27;86.38;99639.28;10331992;28;20457;-80
2023/11/24 05:42:31;;;;;;;12.90;1.90;;;;;;;4.61;85.89;99624.56;10329319;28;20052;-81
2023/11/24 05:47:35;;;;;;;17.60;2.03;;;;;;;4.58;85.91;99629.22;10339391;28;20152;-82
2023/11/24 05:52:38;;;;;;;10.93;1.25;;;;;;;4.17;88.08;99614.28;10355338;28;20061;-83
2023/11/24 05:57:42;;;;;;;9.10;1.98;;;;;;;4.20;87.60;99618.50;10330141;28;20054;-82
2023/11/24 06:02:46;;;;;;;10.63;1.58;;;;;;;3.83;89.90;99613.81;10333512;28;20058;-83
2023/11/24 06:07:49;;;;;;;15.30;2.13;;;;;;;3.75;89.90;99617.94;10330463;28;20046;-82
2023/11/24 06:12:58;;;;;;;15.55;1.58;;;;;;;3.99;88.49;99605.69;10325398;28;21169;-82
2023/11/24 06:18:01;;;;;;;9.70;1.63;;;;;;;4.17;87.21;99599.19;10326447;28;20042;-82
2023/11/24 06:23:04;;;;;;;7.53;1.48;;;;;;;3.87;88.74;99606.53;10314259;28;20049;-81
2023/11/24 06:28:08;;;;;;;7.53;2.05;;;;;;;3.48;89.58;99597.50;10310613;28;20058;-81
2023/11/24 06:33:11;;;;;;;12.40;2.05;;;;;;;3.69;89.17;99604.09;10333707;28;20051;-81
2023/11/24 06:38:14;;;;;;;10.80;1.70;;;;;;;3.70;86.86;99600.50;10331474;28;20049;-81
2023/11/24 06:43:19;;;;;;;11.00;1.17;;;;;;;3.69;88.06;99614.72;10331677;28;20054;-81
2023/11/24 06:48:22;;;;;;;11.80;1.58;;;;;;;3.71;88.54;99617.28;10322682;28;20057;-81
2023/11/24 06:53:24;;;;;;;13.45;1.63;;;;;;;3.78;88.88;99604.44;10327300;28;20052;-81
2023/11/24 06:58:29;;;;;;;5.53;1.45;;;;;;;4.01;87.73;99600.31;10318692;28;20041;-80
2023/11/24 07:03:31;;;;;;;9.70;1.73;;;;;;;3.89;88.23;99586.00;10313527;28;20069;-82
2023/11/24 07:08:35;;;;;;;14.38;1.95;;;;;;;3.94;88.55;99594.53;10323056;28;20506;-82
2023/11/24 07:13:39;;;;;;;12.48;1.75;;;;;;;3.83;89.20;99600.53;10336519;28;20131;-81
2023/11/24 07:18:42;;;;;;;5.13;1.20;;;;;;;4.04;86.90;99603.59;10322911;28;20990;-80
2023/11/24 07:23:45;;;;;;;6.35;1.20;;;;;;;4.09;87.25;99598.84;10334739;28;20050;-80
2023/11/24 07:28:49;;;;;;;13.32;1.70;;;;;;;3.60;92.34;99598.53;10328400;28;20049;-81
2023/11/24 07:33:52;;;;;;;11.63;2.28;;;;;;;4.02;91.48;99600.19;10339372;28;20050;-81
2023/11/24 07:38:55;;;;;;;8.23;1.42;;;;;;;3.73;92.45;99589.69;10310807;28;20138;-81
2023/11/24 07:43:59;;;;;;;10.93;1.48;;;;;;;4.07;93.50;99587.44;10325978;28;20054;-80
2023/11/24 07:49:03;;;;;;;7.28;1.33;;;;;;;3.91;96.73;99584.94;10325084;28;20054;-81
2023/11/24 07:54:06;;;;;;;7.00;1.10;;;;;;;3.23;100.00;99606.19;10322110;28;20482;-81
2023/11/24 07:59:11;;;;;;;5.47;0.93;;;;;;;3.15;100.00;99611.97;10342789;28;20052;-81
2023/11/24 08:04:14;;;;;;;4.85;1.00;;;;;;;2.57;100.00;99619.03;10345230;28;20064;-82
2023/11/24 08:09:17;;;;;;;4.25;1.40;;;;;;;3.03;100.00;99628.66;10324578;28;20061;-82
2023/11/24 08:14:23;;;;;;;6.60;1.10;;;;;;;3.18;100.00;99629.50;10300392;28;20065;-80
2023/11/24 08:19:27;;;;;;;5.68;1.08;;;;;;;2.93;100.00;99616.91;10319894;28;20046;-80
2023/11/24 08:24:30;;;;;;;6.13;1.20;;;;;;;3.14;100.00;99612.06;10333986;28;20433;-80
2023/11/24 08:29:34;;;;;;;5.75;0.90;;;;;;;2.69;100.00;99624.53;10318322;28;20259;-79
2023/11/24 08:34:37;;;;;;;8.57;1.17;;;;;;;2.84;100.00;99595.31;10326081;28;20050;-78
2023/11/24 08:39:40;;;;;;;3.25;1.13;;;;;;;2.73;100.00;99583.66;10323620;28;20050;-79
2023/11/24 08:44:45;;;;;;;4.32;1.60;;;;;;;2.69;100.00;99587.41;10331150;28;20057;-78
2023/11/24 08:49:48;;;;;;;4.10;1.45;;;;;;;2.70;100.00;99570.59;10331790;28;20048;-79
2023/11/24 08:54:51;;;;;;;5.25;2.17;;;;;;;2.82;100.00;99554.75;10330960;28;20806;-79
2023/11/24 08:59:55;;;;;;;1.60;1.33;;;;;;;2.52;100.00;99552.16;10333765;28;20057;-77
2023/11/24 09:04:58;;;;;;;5.65;2.13;;;;;;;2.53;100.00;99543.31;10341649;28;20124;-80
2023/11/24 09:10:02;;;;;;;6.45;2.03;;;;;;;2.69;100.00;99540.56;10367322;28;20046;-79
2023/11/24 09:15:08;;;;;;;4.10;1.80;;;;;;;2.74;100.00;99535.84;10339794;28;20169;-80
2023/11/24 09:20:16;;;;;;;4.28;2.55;;;;;;;3.09;100.00;99530.09;10339061;28;20049;-79
2023/11/24 09:25:19;;;;;;;4.45;1.90;;;;;;;2.93;100.00;99524.06;10323052;28;20744;-81
2023/11/24 09:30:24;;;;;;;5.55;1.23;;;;;;;2.84;100.00;99525.50;10322219;28;20054;-80
2023/11/24 09:35:26;;;;;;;11.20;2.15;;;;;;;3.01;100.00;99521.75;10329472;28;20054;-80
2023/11/24 09:40:31;;;;;;;4.97;1.05;;;;;;;3.04;100.00;99529.53;10335530;28;20060;-78
2023/11/24 09:45:35;;;;;;;4.20;0.98;;;;;;;3.08;100.00;99514.28;10323351;28;20050;-78
2023/11/24 09:50:41;;;;;;;5.82;1.45;;;;;;;3.11;100.00;99512.28;10337664;28;20042;-80
2023/11/24 09:55:43;;;;;;;4.93;1.52;;;;;;;3.14;100.00;99500.63;10374620;28;21111;-80
2023/11/24 10:00:49;;;;;;;6.10;0.82;;;;;;;2.55;100.00;99485.75;10354830;28;20050;-79
2023/11/24 10:05:52;;;;;;;7.13;1.50;;;;;;;2.52;100.00;99475.25;10338510;28;20058;-81
2023/11/24 10:11:09;;;;;;;7.78;1.73;;;;;;;2.97;100.00;99476.00;10344289;28;20049;-80
2023/11/24 10:16:14;;;;;;;11.23;1.90;;;;;;;3.58;100.00;99457.03;10338732;28;20050;-78
2023/11/24 10:21:18;;;;;;;8.85;1.23;;;;;;;4.18;100.00;99456.47;10327765;28;20054;-78
2023/11/24 10:26:33;;;;;;;7.85;2.22;;;;;;;4.60;97.75;99447.28;10304775;28;20046;-80
2023/11/24 10:31:39;;;;;;;4.60;1.52;;;;;;;4.45;93.60;99411.16;10297599;28;20058;-82
2023/11/24 10:36:43;;;;;;;4.05;1.20;;;;;;;5.46;87.96;99426.91;10313142;28;20700;-80
2023/11/24 10:41:50;;;;;;;8.27;1.02;;;;;;;4.49;89.24;99427.72;10326384;28;20505;-80
2023/11/24 10:47:03;;;;;;;6.53;1.17;;;;;;;4.33;90.42;99420.00;10331587;28;20854;-82
2023/11/24 10:52:13;;;;;;;6.75;1.17;;;;;;;4.02;86.92;99416.81;10312451;28;20052;-81
2023/11/24 10:57:19;;;;;;;4.75;1.25;;;;;;;3.36;87.00;99404.50;10311244;28;20582;-80
2023/11/24 11:02:25;;;;;;;1.80;0.43;;;;;;;3.63;84.96;99393.84;10309709;28;20049;-78
2023/11/24 11:07:37;;;;;;;0.35;0.30;;;;;;;3.78;85.68;99391.94;10325059;28;20526;-79
2023/11/24 11:12:49;;;;;;;2.83;0.30;;;;;;;3.53;90.50;99385.63;10322297;28;20429;-80
2023/11/24 11:18:13;;;;;;;1.70;0.30;;;;;;;3.86;86.72;99376.31;10325858;28;20042;-81
2023/11/24 11:23:16;;;;;;;2.78;0.65;;;;;;;4.84;84.89;99364.84;10333551;28;20650;-81
2023/11/24 11:28:45;;;;;;;4.18;0.93;;;;;;;5.23;81.24;99348.72;10329392;28;21142;-82
2023/11/24 11:33:50;;;;;;;4.55;1.05;;;;;;;6.40;79.98;99361.88;10329367;28;20049;-84
2023/11/24 11:38:54;;;;;;;6.75;1.15;;;;;;;6.05;77.18;99349.50;10311723;28;20054;-83
2023/11/24 11:43:57;;;;;;;7.93;1.45;;;;;;;5.10;81.28;99362.13;10320702;28;20046;-84
2023/11/24 11:49:08;;;;;;;7.07;1.55;;;;;;;4.84;82.93;99353.38;10333170;28;20422;-84
2023/11/24 11:54:12;;;;;;;7.80;1.40;;;;;;;4.71;84.62;99349.91;10297488;28;20057;-83
2023/11/24 11:59:16;;;;;;;9.80;1.35;;;;;;;4.09;87.19;99345.50;10324480;28;21764;-83
2023/11/24 12:04:20;;;;;;;5.72;1.42;;;;;;;4.07;87.25;99345.59;10325497;28;20053;-83
2023/11/24 12:09:25;;;;;;;9.68;2.03;;;;;;;4.76;84.25;99323.81;10315841;28;20160;-82
2023/11/24 12:14:28;;;;;;;10.68;2.20;;;;;;;5.42;82.15;99321.56;10335529;28;20105;-82
2023/11/24 12:19:33;;;;;;;20.27;2.17;;;;;;;4.63;83.19;99291.94;10309734;28;20046;-82
2023/11/24 12:24:39;;;;;;;12.38;1.65;;;;;;;4.15;86.60;99287.44;10348758;28;20119;-85
2023/11/24 12:29:45;;;;;;;7.32;1.52;;;;;;;3.14;100.00;99298.94;10321286;28;20513;-83
2023/11/24 12:34:51;;;;;;;7.97;1.48;;;;;;;2.80;100.00;99307.34;10329143;28;20070;-84
2023/11/24 12:39:54;;;;;;;16.52;2.05;;;;;;;2.76;100.00;99289.09;10320854;28;20057;-84
2023/11/24 12:44:59;;;;;;;3.38;1.27;;;;;;;2.10;100.00;99302.09;10319866;28;20055;-83
2023/11/24 12:50:10;;;;;;;6.60;2.00;;;;;;;2.43;100.00;99297.41;10332856;28;20050;-83
2023/11/24 12:55:13;;;;;;;2.27;1.03;;;;;;;2.44;100.00;99293.78;10348480;28;20812;-82
2023/11/24 13:00:19;;;;;;;5.57;0.95;;;;;;;2.44;100.00;99277.88;10326020;28;20068;-82
2023/11/24 13:05:25;;;;;;;5.05;0.75;;;;;;;2.52;100.00;99272.94;10327675;28;20049;-84
2023/11/24 13:10:30;;;;;;;3.20;0.63;;;;;;;2.21;100.00;99269.63;10326735;28;20073;-83
2023/11/24 13:15:33;;;;;;;1.20;0.40;;;;;;;2.08;100.00;99268.72;10322654;28;20074;-82
2023/11/24 13:20:38;;;;;;;2.15;0.70;;;;;;;1.83;100.00;99272.91;10329647;28;20052;-83
2023/11/24 13:25:41;;;;;;;4.65;0.63;;;;;;;1.67;100.00;99269.50;10320303;28;20057;-82
2023/11/24 13:30:44;;;;;;;3.67;0.80;;;;;;;2.21;100.00;99260.84;10316059;28;20526;-83
2023/11/24 13:35:50;;;;;;;2.58;0.65;;;;;;;1.79;100.00;99249.38;10323395;28;20052;-83
2023/11/24 13:40:54;;;;;;;2.88;1.42;;;;;;;2.01;100.00;99248.88;10339820;28;20057;-81
2023/11/24 13:45:59;;;;;;;6.47;1.05;;;;;;;2.42;100.00;99256.81;10360416;28;20124;-82
2023/11/24 13:51:06;;;;;;;3.65;1.00;;;;;;;2.47;100.00;99243.22;10340147;28;20126;-81
2023/11/24 13:56:09;;;;;;;4.22;0.90;;;;;;;3.46;97.35;99247.16;10328121;28;20057;-81
2023/11/24 14:01:12;;;;;;;9.20;1.38;;;;;;;3.81;97.88;99241.16;10341415;28;20417;-82
2023/11/24 14:06:18;;;;;;;2.40;1.00;;;;;;;3.59;96.83;99231.19;10341469;28;20525;-82
2023/11/24 14:11:21;;;;;;;1.15;0.50;;;;;;;2.98;98.68;99236.28;10332495;28;20050;-82
2023/11/24 14:16:24;;;;;;;0.82;0.32;;;;;;;2.16;100.00;99221.38;10354854;28;20061;-80
2023/11/24 14:21:32;;;;;;;2.47;0.75;;;;;;;1.36;100.00;99231.69;10351290;28;20429;-80
2023/11/24 14:26:35;;;;;;;5.78;1.10;;;;;;;1.26;100.00;99215.56;10345757;28;21642;-80
2023/11/24 14:31:38;;;;;;;4.63;2.55;;;;;;;1.35;100.00;99203.56;10336525;28;20052;-78
2023/11/24 14:36:42;;;;;;;2.90;1.30;;;;;;;1.48;100.00;99206.25;10334639;28;20521;-81
2023/11/24 14:41:47;;;;;;;5.32;1.38;;;;;;;1.63;100.00;99207.13;10320909;28;20050;-80
2023/11/24 14:46:51;;;;;;;4.82;1.42;;;;;;;1.98;100.00;99186.34;10333817;28;20048;-80
2023/11/24 14:51:55;;;;;;;4.40;1.08;;;;;;;2.02;100.00;99184.34;10336251;28;20069;-80
2023/11/24 14:56:59;;;;;;;10.52;1.70;;;;;;;2.05;100.00;99189.44;10337896;28;20050;-78
2023/11/24 15:02:07;;;;;;;7.82;1.50;;;;;;;2.17;100.00;99186.00;10341180;28;20053;-80
2023/11/24 15:07:13;;;;;;;10.35;1.38;;;;;;;2.08;100.00;99178.63;10336381;28;20405;-80
2023/11/24 15:12:16;;;;;;;7.38;1.52;;;;;;;1.97;100.00;99170.53;10332069;28;20395;-79
2023/11/24 15:17:19;;;;;;;10.98;0.98;;;;;;;1.89;100.00;99169.25;10303696;28;20050;-81
2023/11/24 15:22:26;;;;;;;6.13;1.55;;;;;;;1.92;100.00;99190.25;10318375;28;20105;-81
2023/11/24 15:27:30;;;;;;;11.38;1.73;;;;;;;2.76;100.00;99201.56;10314375;28;20072;-81
2023/11/24 15:32:32;;;;;;;3.95;1.20;;;;;;;2.03;100.00;99191.31;10326964;28;20618;-80
2023/11/24 15:37:37;;;;;;;11.32;1.45;;;;;;;2.45;100.00;99181.53;10329778;28;20125;-79
2023/11/24 15:42:40;;;;;;;4.28;1.00;;;;;;;2.03;100.00;99180.72;10329562;28;20046;-82
2023/11/24 15:47:46;;;;;;;7.22;1.50;;;;;;;1.36;100.00;99184.06;10322892;28;20042;-82
2023/11/24 15:53:06;;;;;;;8.33;1.67;;;;;;;1.37;100.00;99176.97;10322629;28;20177;-82
2023/11/24 15:58:12;;;;;;;9.85;1.80;;;;;;;1.71;100.00;99178.38;10331453;28;20045;-81
2023/11/24 16:03:16;;;;;;;8.90;1.58;;;;;;;1.76;100.00;99181.59;10340098;28;20057;-82
2023/11/24 16:08:21;;;;;;;8.90;2.00;;;;;;;1.73;100.00;99169.38;10316922;28;20069;-82
2023/11/24 16:13:24;;;;;;;11.15;1.50;;;;;;;1.37;100.00;99140.81;10333625;28;20054;-81
2023/11/24 16:18:27;;;;;;;4.68;1.15;;;;;;;1.47;98.98;99149.84;10319969;28;20057;-82
2023/11/24 16:23:38;;;;;;;14.88;2.30;;;;;;;1.76;98.80;99162.19;10328956;28;20054;-79
2023/11/24 16:28:43;;;;;;;7.88;1.42;;;;;;;1.71;99.43;99136.00;10327578;28;20132;-80
2023/11/24 16:33:46;;;;;;;6.78;1.58;;;;;;;1.68;99.13;99133.56;10329867;28;20052;-81
2023/11/24 16:38:50;;;;;;;4.28;1.42;;;;;;;1.77;99.28;99129.47;10329249;28;20151;-81
2023/11/24 16:43:55;;;;;;;6.28;1.13;;;;;;;1.56;99.40;99111.34;10337982;28;20042;-80
2023/11/24 16:48:58;;;;;;;5.88;0.93;;;;;;;1.46;99.25;99110.28;10343513;28;20086;-82
2023/11/24 16:54:03;;;;;;;10.27;1.17;;;;;;;1.66;97.59;99109.81;10327117;28;20053;-83
2023/11/24 16:59:06;;;;;;;6.32;1.55;;;;;;;1.93;94.72;99096.59;10326455;28;20188;-83
2023/11/24 17:04:09;;;;;;;11.00;2.17;;;;;;;1.94;96.65;99111.53;10325337;28;20046;-82
2023/11/24 17:09:15;;;;;;;4.68;1.08;;;;;;;1.45;100.00;99106.78;10325320;28;21216;-80
2023/11/24 17:14:18;;;;;;;4.25;1.77;;;;;;;1.72;100.00;99116.53;10324396;28;20176;-80
2023/11/24 17:19:21;;;;;;;10.45;1.67;;;;;;;1.56;100.00;99107.88;10326787;28;20053;-79
2023/11/24 17:24:26;;;;;;;7.60;1.38;;;;;;;1.57;100.00;99107.78;10329585;28;20073;-80
2023/11/24 17:29:29;;;;;;;4.53;1.50;;;;;;;1.39;100.00;99109.78;10330797;28;20436;-81
2023/11/24 17:34:33;;;;;;;7.75;1.40;;;;;;;2.00;100.00;99110.28;10315076;28;20043;-81
2023/11/24 17:39:39;;;;;;;3.33;0.95;;;;;;;1.70;100.00;99100.75;10318334;28;20096;-80
2023/11/24 17:44:42;;;;;;;5.65;1.25;;;;;;;1.47;100.00;99083.69;10329474;28;20046;-81
2023/11/24 17:49:45;;;;;;;6.80;0.88;;;;;;;1.71;100.00;99083.06;10335043;28;20050;-81
2023/11/24 17:54:50;;;;;;;10.10;3.05;;;;;;;1.42;100.00;99071.69;10333812;28;20460;-81
2023/11/24 17:59:53;;;;;;;4.82;1.45;;;;;;;1.19;100.00;99057.31;10312399;28;20054;-83
2023/11/24 18:05:00;;;;;;;6.78;1.83;;;;;;;1.46;100.00;99054.69;10318751;28;20050;-81
2023/11/24 18:10:06;;;;;;;3.60;1.00;;;;;;;1.48;100.00;99021.03;10338471;28;20058;-82
2023/11/24 18:15:13;;;;;;;5.57;1.17;;;;;;;1.69;99.90;99045.25;10329623;28;20684;-81
2023/11/24 18:20:17;;;;;;;9.80;1.83;;;;;;;1.45;100.00;99066.22;10343138;28;20060;-81
2023/11/24 18:25:22;;;;;;;8.38;2.00;;;;;;;1.22;100.00;99065.88;10345091;28;20060;-81
2023/11/24 18:30:25;;;;;;;9.00;2.28;;;;;;;1.38;100.00;99068.41;10301229;28;20061;-82
2023/11/24 18:35:28;;;;;;;5.95;1.45;;;;;;;1.39;100.00;99098.34;10312317;28;20046;-83
2023/11/24 18:40:32;;;;;;;7.80;1.60;;;;;;;1.62;100.00;99128.63;10331431;28;20053;-81
2023/11/24 18:45:35;;;;;;;6.05;1.80;;;;;;;1.51;100.00;99126.72;10333665;28;20177;-79
2023/11/24 18:50:38;;;;;;;5.05;1.20;;;;;;;0.83;100.00;99130.03;10323691;28;20440;-81
2023/11/24 18:55:42;;;;;;;2.17;0.80;;;;;;;0.72;100.00;99143.91;10344981;28;20046;-79
2023/11/24 19:00:45;;;;;;;3.10;1.10;;;;;;;0.30;100.00;99142.88;10331558;28;20050;-81
2023/11/24 19:05:49;;;;;;;4.97;1.20;;;;;;;0.97;100.00;99172.34;10335407;28;20843;-82
2023/11/24 19:10:53;;;;;;;1.55;1.00;;;;;;;1.04;100.00;99181.63;10349983;28;20127;-83
2023/11/24 19:15:56;;;;;;;3.40;1.02;;;;;;;1.65;100.00;99141.72;10348188;28;20041;-80
2023/11/24 19:20:59;;;;;;;3.30;0.35;;;;;;;1.20;100.00;99201.84;10338956;28;20596;-80
2023/11/24 19:26:06;;;;;;;0.80;0.40;;;;;;;1.37;100.00;99224.59;10336553;28;20115;-81
2023/11/24 19:31:09;;;;;;;6.07;0.35;;;;;;;0.86;100.00;99232.97;10344624;28;20075;-81
2023/11/24 19:36:13;;;;;;;1.00;0.52;;;;;;;0.62;100.00;99224.69;10344092;28;20429;-82
2023/11/24 19:41:17;;;;;;;3.97;0.40;;;;;;;0.76;100.00;99245.84;10345394;28;20057;-83
2023/11/24 19:46:21;;;;;;;1.35;0.40;;;;;;;0.71;100.00;99265.56;10371416;28;20053;-81
2023/11/24 19:51:25;;;;;;;3.55;0.57;;;;;;;0.68;100.00;99271.03;10346222;28;20120;-81
2023/11/24 19:56:29;;;;;;;1.25;0.50;;;;;;;0.31;100.00;99278.44;10329250;28;20120;-80
2023/11/24 20:01:34;;;;;;;3.50;0.30;;;;;;;0.41;100.00;99278.75;10343989;28;21525;-83
2023/11/24 20:06:37;;;;;;;4.13;0.60;;;;;;;0.75;100.00;99299.69;10329031;28;20046;-80
2023/11/24 20:11:41;;;;;;;3.05;0.43;;;;;;;0.47;100.00;99310.97;10336607;28;20113;-82
2023/11/24 20:16:46;;;;;;;1.17;0.47;;;;;;;0.45;100.00;99326.06;10320988;28;20060;-82
2023/11/24 20:21:49;;;;;;;1.92;0.30;;;;;;;0.21;100.00;99343.28;10334194;28;20049;-81
2023/11/24 20:26:54;;;;;;;4.68;0.40;;;;;;;-0.01;100.00;99343.59;10333054;28;20529;-81
2023/11/24 20:31:57;;;;;;;5.45;0.80;;;;;;;0.24;100.00;99366.88;10327160;28;20127;-82
2023/11/24 20:37:00;;;;;;;2.35;0.88;;;;;;;0.15;100.00;99368.22;10323027;28;20096;-82
2023/11/24 20:42:06;;;;;;;3.90;0.77;;;;;;;0.20;100.00;99375.91;10340953;28;20050;-81
2023/11/24 20:47:09;;;;;;;3.45;0.60;;;;;;;0.51;100.00;99383.84;10341395;28;20052;-81
2023/11/24 20:52:12;;;;;;;1.08;0.52;;;;;;;0.20;100.00;99394.41;10330236;28;20053;-82
2023/11/24 20:57:17;;;;;;;3.67;0.85;;;;;;;0.36;100.00;99405.84;10339435;28;20057;-81
2023/11/24 21:02:20;;;;;;;4.30;0.70;;;;;;;0.64;100.00;99415.75;10343020;28;20528;-82
2023/11/24 21:07:23;;;;;;;5.43;1.15;;;;;;;0.57;100.00;99435.50;10352561;28;20050;-82
2023/11/24 21:12:28;;;;;;;4.80;0.90;;;;;;;0.15;100.00;99436.88;10345707;28;20038;-82
2023/11/24 21:17:31;;;;;;;4.45;1.13;;;;;;;0.39;100.00;99446.16;10348049;28;20057;-85
2023/11/24 21:22:34;;;;;;;8.25;1.45;;;;;;;0.29;100.00;99460.78;10340243;28;20050;-81
2023/11/24 21:27:39;;;;;;;3.95;1.25;;;;;;;0.55;100.00;99464.69;10331335;28;20080;-82
2023/11/24 21:32:43;;;;;;;5.90;1.52;;;;;;;0.62;100.00;99478.41;10331765;28;20119;-81
2023/11/24 21:37:46;;;;;;;5.63;1.35;;;;;;;0.30;100.00;99488.03;10333604;28;20046;-79
2023/11/24 21:42:51;;;;;;;5.10;1.80;;;;;;;0.74;99.82;99487.44;10333330;28;20150;-83
2023/11/24 21:47:56;;;;;;;7.05;1.30;;;;;;;0.18;100.00;99484.25;10336634;28;20049;-82
2023/11/24 21:53:00;;;;;;;4.47;1.17;;;;;;;0.57;100.00;99491.84;10322790;28;20054;-84
2023/11/24 21:58:04;;;;;;;7.82;1.38;;;;;;;0.59;99.75;99503.19;10322782;28;20058;-82
2023/11/24 22:03:07;;;;;;;9.80;2.08;;;;;;;0.33;100.00;99509.00;10337720;28;20046;-82
2023/11/24 22:08:10;;;;;;;8.05;1.67;;;;;;;0.23;100.00;99521.88;10319338;28;20049;-83
2023/11/24 22:13:14;;;;;;;12.50;1.92;;;;;;;-0.12;100.00;99539.50;10316023;28;20078;-82
2023/11/24 22:18:18;;;;;;;10.00;1.48;;;;;;;0.33;100.00;99540.72;10298468;28;20066;-81
2023/11/24 22:23:22;;;;;;;10.38;2.25;;;;;;;0.29;100.00;99540.03;10321303;28;20093;-81
2023/11/24 22:28:26;;;;;;;11.55;2.58;;;;;;;0.35;100.00;99552.91;10322495;28;20041;-82
2023/11/24 22:33:29;;;;;;;10.77;1.88;;;;;;;0.29;100.00;99557.66;10338832;28;20064;-81
2023/11/24 22:38:32;;;;;;;7.50;1.80;;;;;;;0.19;100.00;99567.84;10318881;28;20054;-83
2023/11/24 22:43:37;;;;;;;9.30;1.73;;;;;;;0.29;99.40;99571.72;10321682;28;20193;-82
2023/11/24 22:48:40;;;;;;;16.48;1.85;;;;;;;0.51;99.06;99589.97;10342834;28;20633;-82
2023/11/24 22:53:43;;;;;;;7.28;1.90;;;;;;;0.41;98.99;99601.94;10339230;28;20425;-82
2023/11/24 22:58:48;;;;;;;8.10;1.50;;;;;;;0.46;98.81;99607.84;10327049;28;20038;-82
2023/11/24 23:03:53;;;;;;;7.28;1.40;;;;;;;0.11;99.57;99620.19;10322759;28;20046;-84
2023/11/24 23:08:58;;;;;;;7.68;1.50;;;;;;;0.30;97.46;99625.41;10338098;28;20057;-83
2023/11/24 23:14:02;;;;;;;11.75;2.08;;;;;;;0.20;97.96;99632.13;10317001;28;20050;-83
2023/11/24 23:19:06;;;;;;;13.75;2.03;;;;;;;-0.00;97.73;99641.00;10349889;28;20117;-83
2023/11/24 23:24:10;;;;;;;9.15;1.50;;;;;;;0.02;98.67;99647.91;10338502;28;20082;-81
2023/11/24 23:29:15;;;;;;;17.13;2.95;;;;;;;0.18;98.69;99645.38;10337347;28;20407;-84
2023/11/24 23:34:18;;;;;;;8.43;1.55;;;;;;;0.17;98.51;99641.88;10315039;28;20054;-82
2023/11/24 23:39:21;;;;;;;10.18;1.80;;;;;;;0.22;98.32;99654.88;10306145;28;20050;-83